This is the latest recevied weather packets stored in our database for station/object W2OBX. If no packets are shown the sender has not sent any weather packets the latest 1 day(s).
| Time | Temp. | Humidity | Pressure | Rain* | Wind** | Luminosity | Snow |
|---|---|---|---|---|---|---|---|
| 1778106677 | 19.44° C | 93% | 1012.1 hPa | 0 mm | - | 5 W/m² | - |
| 1778104250 | 20° C | 92% | 1012.3 hPa | 0 mm | - | 12 W/m² | - |
| 1778102431 | 20.56° C | 90% | 1011.6 hPa | 0 mm | - | 19 W/m² | - |
| 1778100610 | 21.11° C | 86% | 1011.6 hPa | 0 mm | - | 16 W/m² | - |
| 1778099703 | 21.11° C | 86% | 1012.3 hPa | 0 mm | - | 32 W/m² | - |
| 1778095761 | 21.11° C | 83% | 1012.4 hPa | 0 mm | - | 55 W/m² | - |
| 1778095155 | 21.11° C | 83% | 1012.7 hPa | 0 mm | - | 37 W/m² | - |
| 1778094851 | 21.11° C | 82% | 1013 hPa | 0 mm | - | 41 W/m² | - |
| 1778092730 | 22.22° C | 79% | 1013.3 hPa | 0 mm | - | 60 W/m² | - |
| 1778091215 | 22.78° C | 80% | 1012.5 hPa | 0 mm | - | 138 W/m² | - |
| 1778090912 | 22.22° C | 80% | 1012.3 hPa | 0 mm | - | 409 W/m² | - |
| 1778090304 | 22.22° C | 81% | 1012.2 hPa | 0 mm | - | 293 W/m² | - |
| 1778089093 | 21.67° C | 82% | 1012.4 hPa | 0 mm | - | 156 W/m² | - |
| 1778088790 | 21.67° C | 83% | 1012.2 hPa | 0 mm | - | 273 W/m² | - |
| 1778088487 | 21.67° C | 85% | 1012.4 hPa | 0 mm | - | 372 W/m² | - |
| 1778087578 | 21.11° C | 84% | 1012.4 hPa | 0 mm | - | 267 W/m² | - |
| 1778086670 | 20° C | 89% | 1012.3 hPa | 0 mm | - | 141 W/m² | - |
| 1778086064 | 20° C | 91% | 1012.4 hPa | 0 mm | - | 108 W/m² | - |
| 1778085458 | 19.44° C | 94% | 1012.4 hPa | 0 mm | - | 115 W/m² | - |
| 1778083941 | 18.33° C | 95% | 1013.3 hPa | 0 mm | - | 77 W/m² | - |
| 1778083335 | 18.33° C | 96% | 1013.3 hPa | 0 mm | - | 43 W/m² | - |
| 1778080992 | 17.78° C | 97% | 1014.2 hPa | 0 mm | - | 28 W/m² | - |
| 1778079781 | 17.78° C | 97% | 1014.1 hPa | 0 mm | - | 18 W/m² | - |
| 1778079174 | 18.33° C | 97% | 1013.9 hPa | 0 mm | - | 17 W/m² | - |
| 1778078872 | 18.33° C | 97% | 1013.7 hPa | 0 mm | - | 22 W/m² | - |
* Rain latest hour (hover to see other rain measurements)
** Current wind speed in m/s (hover to see current wind gust speed)